Time;durP1;ratioP1;P1;durP2;ratioP2;P2;SDS_P1;SDS_P2;PMS_P1;PMS_P2;Temp;Humidity;BMP_temperature;BMP_pressure;BME280_temperature;BME280_humidity;BME280_pressure;Samples;Min_cycle;Max_cycle;Signal;HPM_P1;HPM_P2
2021/03/29 00:00:03;;;;;;;5.63;2.83;;;14.40;45.40;;;;;;2106362;28;20020;-57
2021/03/29 00:01:25;;;;;;;6.57;3.30;;;14.40;45.40;;;;;;2111492;28;20092;-56
2021/03/29 00:02:47;;;;;;;6.78;2.88;;;14.40;45.40;;;;;;2112716;28;20335;-57
2021/03/29 00:04:08;;;;;;;7.15;2.90;;;14.40;45.40;;;;;;2107806;28;20475;-59
2021/03/29 00:05:32;;;;;;;6.80;3.22;;;14.40;45.30;;;;;;2108512;28;20461;-58
2021/03/29 00:06:55;;;;;;;8.30;3.55;;;14.50;45.40;;;;;;2114472;28;20032;-56
2021/03/29 00:08:23;;;;;;;6.45;3.10;;;14.50;45.30;;;;;;2113502;28;20028;-57
2021/03/29 00:09:45;;;;;;;6.40;3.15;;;14.50;45.30;;;;;;2112616;28;20051;-58
2021/03/29 00:11:07;;;;;;;7.40;3.60;;;14.50;45.30;;;;;;2101781;28;20501;-59
2021/03/29 00:12:28;;;;;;;5.20;3.35;;;14.40;45.20;;;;;;2105963;28;20100;-58
2021/03/29 00:13:52;;;;;;;6.78;3.90;;;14.50;45.20;;;;;;2111523;28;20034;-57
2021/03/29 00:15:18;;;;;;;4.90;3.30;;;14.40;45.20;;;;;;2113186;28;20429;-56
2021/03/29 00:16:40;;;;;;;8.35;3.88;;;14.50;45.30;;;;;;2111733;28;20090;-57
2021/03/29 00:18:02;;;;;;;6.30;3.28;;;14.50;45.20;;;;;;2112036;28;20115;-58
2021/03/29 00:19:25;;;;;;;7.18;3.13;;;14.40;45.20;;;;;;2108668;28;20524;-57
2021/03/29 00:20:50;;;;;;;5.65;3.00;;;14.50;45.20;;;;;;2112663;28;20027;-57
2021/03/29 00:22:12;;;;;;;8.65;3.72;;;14.40;45.20;;;;;;2111980;28;20119;-56
2021/03/29 00:23:34;;;;;;;6.03;3.22;;;14.40;45.20;;;;;;2110060;27;20361;-57
2021/03/29 00:24:55;;;;;;;6.15;3.03;;;14.40;45.20;;;;;;2113847;28;20393;-58
2021/03/29 00:26:17;;;;;;;8.25;3.80;;;14.40;45.10;;;;;;2112475;27;20600;-58
2021/03/29 00:27:38;;;;;;;7.95;3.45;;;14.40;45.20;;;;;;2112542;28;20050;-57
2021/03/29 00:28:59;;;;;;;7.15;3.45;;;14.40;45.20;;;;;;2112692;28;20123;-55
2021/03/29 00:30:23;;;;;;;9.77;3.58;;;14.30;45.20;;;;;;2113113;28;20119;-58
2021/03/29 00:31:44;;;;;;;6.80;3.30;;;14.30;45.20;;;;;;2112190;28;20281;-59
2021/03/29 00:33:06;;;;;;;7.70;3.25;;;14.30;45.20;;;;;;2112559;28;20035;-56
2021/03/29 00:34:28;;;;;;;5.63;2.92;;;14.30;45.20;;;;;;2108629;28;20031;-56
2021/03/29 00:35:50;;;;;;;10.52;3.97;;;14.30;45.20;;;;;;2112950;28;20035;-57
2021/03/29 00:37:12;;;;;;;7.63;3.67;;;14.30;45.20;;;;;;2110863;28;20032;-58
2021/03/29 00:38:33;;;;;;;8.90;3.45;;;14.30;45.20;;;;;;2114956;27;20020;-57
2021/03/29 00:39:55;;;;;;;6.45;3.40;;;14.20;45.20;;;;;;2114724;27;20486;-55
2021/03/29 00:41:17;;;;;;;6.07;3.60;;;14.20;45.20;;;;;;2116085;27;20031;-57
2021/03/29 00:42:39;;;;;;;7.60;3.75;;;14.20;45.20;;;;;;2110827;28;20031;-57
2021/03/29 00:44:01;;;;;;;7.13;3.10;;;14.20;45.20;;;;;;2112658;28;20035;-57
2021/03/29 00:45:24;;;;;;;8.55;3.95;;;14.20;45.30;;;;;;2113779;28;20498;-56
2021/03/29 00:46:45;;;;;;;8.63;3.63;;;14.20;45.20;;;;;;2111609;28;20039;-57
2021/03/29 00:48:08;;;;;;;8.55;3.50;;;14.20;45.20;;;;;;2113436;28;20023;-58
2021/03/29 00:49:29;;;;;;;7.20;3.65;;;14.20;45.30;;;;;;2108589;28;20031;-58
2021/03/29 00:50:50;;;;;;;7.13;3.63;;;14.20;45.30;;;;;;2113484;28;20080;-57
2021/03/29 00:52:11;;;;;;;6.53;3.63;;;14.20;45.20;;;;;;2111260;28;20096;-58
2021/03/29 00:53:33;;;;;;;6.93;4.03;;;14.10;45.20;;;;;;2108756;28;20042;-58
2021/03/29 00:54:55;;;;;;;9.40;4.20;;;14.20;45.30;;;;;;2112521;28;20046;-57
2021/03/29 00:56:17;;;;;;;5.15;3.53;;;14.20;45.30;;;;;;2112903;28;20458;-54
2021/03/29 00:57:39;;;;;;;6.22;3.35;;;14.10;45.20;;;;;;2112097;28;20063;-57
2021/03/29 00:59:01;;;;;;;10.15;3.30;;;14.10;45.30;;;;;;2112269;28;20035;-56
2021/03/29 01:00:49;;;;;;;6.60;3.40;;;14.10;45.30;;;;;;2109581;28;20454;-57
2021/03/29 01:02:10;;;;;;;5.25;3.33;;;14.10;45.30;;;;;;2112554;28;20375;-59
2021/03/29 01:03:34;;;;;;;7.05;3.50;;;14.10;45.20;;;;;;2108391;28;20036;-58
2021/03/29 01:04:55;;;;;;;5.35;3.50;;;14.10;45.20;;;;;;2113059;28;20016;-56
2021/03/29 01:06:20;;;;;;;8.32;3.65;;;14.10;45.20;;;;;;2112991;28;20447;-57
2021/03/29 01:07:44;;;;;;;7.85;3.15;;;14.10;45.20;;;;;;2109719;28;20027;-57
2021/03/29 01:09:20;;;;;;;5.30;3.35;;;14.10;45.20;;;;;;2112873;28;20059;-58
2021/03/29 01:10:41;;;;;;;10.27;3.17;;;14.10;45.30;;;;;;2110340;28;20119;-57
2021/03/29 01:12:07;;;;;;;5.85;3.30;;;14.10;45.20;;;;;;2113465;28;20098;-57
2021/03/29 01:13:28;;;;;;;6.10;3.67;;;14.10;45.30;;;;;;2113319;28;20050;-57
2021/03/29 01:14:51;;;;;;;6.65;3.47;;;14.10;45.20;;;;;;2110776;28;20051;-58
2021/03/29 01:16:14;;;;;;;6.55;3.50;;;14.10;45.70;;;;;;2113262;28;20031;-57
2021/03/29 01:17:38;;;;;;;6.10;3.00;;;14.10;45.20;;;;;;2109135;28;20042;-56
2021/03/29 01:19:00;;;;;;;7.65;3.20;;;14.10;45.20;;;;;;2103537;28;20093;-58
2021/03/29 01:20:54;;;;;;;6.82;3.58;;;14.00;45.20;;;;;;2110370;28;20059;-58
2021/03/29 01:22:20;;;;;;;5.85;4.00;;;14.00;45.30;;;;;;2112763;28;20042;-56
2021/03/29 01:23:42;;;;;;;7.85;3.80;;;14.00;45.20;;;;;;2110968;28;20042;-58
2021/03/29 01:25:28;;;;;;;7.05;3.55;;;14.10;45.20;;;;;;2109328;28;20551;-57
2021/03/29 01:26:50;;;;;;;7.13;3.33;;;14.00;45.20;;;;;;2103560;28;20032;-57
2021/03/29 01:28:23;;;;;;;6.75;3.40;;;14.10;45.20;;;;;;2101686;28;20463;-57
2021/03/29 01:29:46;;;;;;;6.20;3.25;;;14.00;45.20;;;;;;2112976;28;20039;-58
2021/03/29 01:31:08;;;;;;;7.20;3.45;;;14.00;45.20;;;;;;2112172;28;20019;-57
2021/03/29 01:32:30;;;;;;;6.38;4.10;;;14.00;45.20;;;;;;2108571;28;20031;-58
2021/03/29 01:33:52;;;;;;;6.78;3.28;;;14.00;45.30;;;;;;2113870;28;20035;-58
2021/03/29 01:35:19;;;;;;;6.82;3.25;;;14.00;45.30;;;;;;2112752;28;20028;-57
2021/03/29 01:36:42;;;;;;;7.32;3.58;;;14.00;45.30;;;;;;2111895;28;20035;-57
2021/03/29 01:38:05;;;;;;;7.80;3.50;;;14.00;45.30;;;;;;2112386;28;20023;-57
2021/03/29 01:39:27;;;;;;;7.18;3.35;;;14.00;45.30;;;;;;2111077;28;20031;-59
2021/03/29 01:40:48;;;;;;;7.55;3.67;;;14.00;45.30;;;;;;2112144;28;20036;-57
2021/03/29 01:42:11;;;;;;;8.18;3.45;;;14.00;45.30;;;;;;2112170;28;20547;-56
2021/03/29 01:43:32;;;;;;;8.48;3.90;;;13.90;45.30;;;;;;2110112;28;20031;-57
2021/03/29 01:44:54;;;;;;;6.97;3.22;;;14.00;45.30;;;;;;2111913;28;20028;-58
2021/03/29 01:46:16;;;;;;;5.93;3.00;;;13.90;45.30;;;;;;2113204;28;20024;-58
2021/03/29 01:47:38;;;;;;;5.30;3.25;;;14.00;45.30;;;;;;2111455;28;20024;-56
2021/03/29 01:49:00;;;;;;;5.50;3.17;;;13.90;45.30;;;;;;2112061;28;20046;-57
2021/03/29 01:50:25;;;;;;;6.93;3.17;;;13.90;45.30;;;;;;2112721;28;20084;-57
2021/03/29 01:51:47;;;;;;;10.13;3.65;;;14.00;45.40;;;;;;2110221;28;20020;-57
2021/03/29 01:53:09;;;;;;;5.38;3.08;;;14.00;45.40;;;;;;2111704;28;20081;-57
2021/03/29 01:54:32;;;;;;;6.50;3.17;;;14.00;45.40;;;;;;2112319;28;20043;-56
2021/03/29 01:55:54;;;;;;;8.07;3.45;;;13.90;45.30;;;;;;2111839;28;20027;-56
2021/03/29 01:57:15;;;;;;;7.85;2.97;;;13.90;45.30;;;;;;2111554;28;20038;-57
2021/03/29 01:58:36;;;;;;;7.35;3.08;;;13.90;45.30;;;;;;2112875;28;20028;-58
2021/03/29 01:59:57;;;;;;;7.03;3.30;;;14.00;45.30;;;;;;2111388;28;20039;-57
2021/03/29 02:01:18;;;;;;;7.40;3.05;;;13.90;45.30;;;;;;2111585;28;20038;-56
2021/03/29 02:02:41;;;;;;;6.65;3.15;;;13.90;45.30;;;;;;2110825;28;20310;-58
2021/03/29 02:04:04;;;;;;;9.93;3.33;;;14.00;45.90;;;;;;2112347;28;20044;-57
2021/03/29 02:05:25;;;;;;;7.65;3.00;;;13.90;45.30;;;;;;2112311;28;20028;-57
2021/03/29 02:06:47;;;;;;;5.65;2.80;;;14.00;45.40;;;;;;2109565;28;20031;-57
2021/03/29 02:08:08;;;;;;;4.57;2.97;;;13.90;45.30;;;;;;2112868;28;20024;-57
2021/03/29 02:09:30;;;;;;;6.15;3.60;;;13.90;45.30;;;;;;2109108;28;20905;-56
2021/03/29 02:10:52;;;;;;;6.68;3.10;;;13.90;45.30;;;;;;2113517;28;20027;-57
2021/03/29 02:12:14;;;;;;;5.78;2.83;;;13.90;45.30;;;;;;2113413;28;20056;-56
2021/03/29 02:13:41;;;;;;;6.45;2.85;;;13.90;45.30;;;;;;2101546;28;20107;-58
2021/03/29 02:15:03;;;;;;;6.10;3.08;;;13.90;45.40;;;;;;2096635;28;20044;-57
2021/03/29 02:16:27;;;;;;;6.63;3.13;;;13.90;45.30;;;;;;2089979;28;20051;-57
2021/03/29 02:17:51;;;;;;;9.25;3.05;;;13.90;45.40;;;;;;2094105;28;20025;-58
2021/03/29 02:19:12;;;;;;;9.30;3.30;;;13.90;45.30;;;;;;2096910;28;20021;-58
2021/03/29 02:20:35;;;;;;;6.78;3.17;;;13.90;45.30;;;;;;2093943;28;20038;-57
2021/03/29 02:21:57;;;;;;;5.68;2.85;;;13.90;45.40;;;;;;2095859;28;20033;-59
2021/03/29 02:23:20;;;;;;;5.85;2.70;;;13.90;45.40;;;;;;2098061;28;20033;-58
2021/03/29 02:24:41;;;;;;;5.80;2.45;;;13.90;45.40;;;;;;2096425;28;20462;-57
2021/03/29 02:26:05;;;;;;;4.97;2.55;;;13.90;45.40;;;;;;2093065;28;20033;-57
2021/03/29 02:27:26;;;;;;;4.95;2.75;;;13.90;45.50;;;;;;2092083;28;20057;-57
2021/03/29 02:28:51;;;;;;;5.68;2.65;;;13.90;45.50;;;;;;2096133;28;20090;-59
2021/03/29 02:30:20;;;;;;;4.30;3.10;;;13.90;45.50;;;;;;2096255;28;20027;-57
2021/03/29 02:31:42;;;;;;;5.70;2.83;;;13.90;45.50;;;;;;2096691;28;20032;-56
2021/03/29 02:33:05;;;;;;;6.70;3.08;;;13.90;45.50;;;;;;2093334;28;20120;-56
2021/03/29 02:34:26;;;;;;;5.80;2.80;;;13.90;45.50;;;;;;2091746;28;20687;-55
2021/03/29 02:35:48;;;;;;;5.95;2.97;;;13.90;45.50;;;;;;2095366;28;20029;-57
2021/03/29 02:37:09;;;;;;;5.97;2.72;;;13.90;45.50;;;;;;2094385;28;20043;-56
2021/03/29 02:38:32;;;;;;;5.00;2.72;;;13.90;45.50;;;;;;2097020;28;20522;-59
2021/03/29 02:39:52;;;;;;;7.18;3.33;;;13.90;45.60;;;;;;2096784;28;20115;-57
2021/03/29 02:41:13;;;;;;;5.97;2.97;;;13.80;45.50;;;;;;2102296;28;20058;-57
2021/03/29 02:42:36;;;;;;;9.68;2.83;;;13.80;45.60;;;;;;2092656;28;20048;-57
2021/03/29 02:43:58;;;;;;;10.68;3.13;;;13.80;45.60;;;;;;2094805;28;20025;-58
2021/03/29 02:45:22;;;;;;;5.28;3.35;;;13.80;45.60;;;;;;2092755;28;20036;-58
2021/03/29 02:46:47;;;;;;;4.90;2.85;;;13.80;45.60;;;;;;2094914;28;20153;-58
2021/03/29 02:48:10;;;;;;;5.47;3.03;;;13.80;45.60;;;;;;2095310;28;20533;-57
2021/03/29 02:49:32;;;;;;;5.03;2.58;;;13.80;45.60;;;;;;2095596;28;20028;-57
2021/03/29 02:50:57;;;;;;;6.82;2.80;;;13.80;45.70;;;;;;2095942;28;20032;-55
2021/03/29 02:52:18;;;;;;;3.38;2.55;;;13.70;45.70;;;;;;2096559;28;20042;-56
2021/03/29 02:53:48;;;;;;;8.02;3.00;;;13.70;45.70;;;;;;2095144;28;20582;-55
2021/03/29 02:55:12;;;;;;;;;;;13.80;45.80;;;;;;2095943;28;20090;-57
2021/03/29 02:56:42;;;;;;;4.00;2.10;;;13.80;45.80;;;;;;2094815;28;20251;-57
2021/03/29 02:58:05;;;;;;;6.30;2.42;;;13.70;45.60;;;;;;2097498;28;20037;-56
2021/03/29 02:59:27;;;;;;;3.67;2.33;;;13.80;45.60;;;;;;2093833;28;20024;-56
2021/03/29 03:00:48;;;;;;;3.00;2.13;;;13.80;45.60;;;;;;2094604;28;20050;-56
2021/03/29 03:02:10;;;;;;;5.00;2.72;;;13.70;45.60;;;;;;2096103;28;20035;-57
2021/03/29 03:03:32;;;;;;;4.93;2.45;;;13.70;45.70;;;;;;2093411;28;20237;-58
2021/03/29 03:04:53;;;;;;;4.68;2.50;;;13.70;45.70;;;;;;2096461;28;20127;-58
2021/03/29 03:06:15;;;;;;;4.43;2.25;;;13.70;45.80;;;;;;2096907;28;20075;-58
2021/03/29 03:07:36;;;;;;;7.68;2.97;;;13.60;45.80;;;;;;2096649;28;20375;-57
2021/03/29 03:09:03;;;;;;;6.65;3.08;;;13.60;45.80;;;;;;2096319;28;20447;-57
2021/03/29 03:10:26;;;;;;;8.68;3.03;;;13.60;45.80;;;;;;2090950;28;20509;-58
2021/03/29 03:11:47;;;;;;;5.55;2.65;;;13.60;45.80;;;;;;2095868;28;20143;-57
2021/03/29 03:13:09;;;;;;;6.53;2.83;;;13.60;45.90;;;;;;2094530;28;20033;-57
2021/03/29 03:14:30;;;;;;;4.38;2.30;;;13.60;45.90;;;;;;2097667;28;20040;-57
2021/03/29 03:15:51;;;;;;;5.10;2.70;;;13.60;46.00;;;;;;2112784;28;20023;-58
2021/03/29 03:17:12;;;;;;;6.97;2.60;;;13.50;45.90;;;;;;2112268;28;20481;-57
2021/03/29 03:18:33;;;;;;;5.63;2.17;;;13.60;46.00;;;;;;2110042;28;20035;-56
2021/03/29 03:19:54;;;;;;;4.53;2.25;;;13.50;46.00;;;;;;2112900;28;20862;-57
2021/03/29 03:21:17;;;;;;;3.83;2.58;;;13.60;46.10;;;;;;2114183;28;20036;-57
2021/03/29 03:22:51;;;;;;;5.22;2.50;;;13.50;46.10;;;;;;2111262;28;20034;-54
2021/03/29 03:24:12;;;;;;;4.32;2.10;;;13.50;46.20;;;;;;2111927;28;20404;-56
2021/03/29 03:25:37;;;;;;;6.93;2.78;;;13.50;46.20;;;;;;2113587;27;20051;-58
2021/03/29 03:27:04;;;;;;;6.68;2.88;;;13.50;46.20;;;;;;2113016;28;20031;-57
2021/03/29 03:28:27;;;;;;;5.72;2.15;;;13.50;46.20;;;;;;2108702;28;20031;-55
2021/03/29 03:29:48;;;;;;;3.95;2.50;;;13.50;46.20;;;;;;2111740;28;20077;-58
2021/03/29 03:31:09;;;;;;;4.57;2.45;;;13.50;46.30;;;;;;2111708;28;20043;-56
2021/03/29 03:32:30;;;;;;;5.68;2.47;;;13.50;46.30;;;;;;2113366;28;20563;-56
2021/03/29 03:33:52;;;;;;;4.15;2.10;;;13.50;46.40;;;;;;2110941;28;20382;-56
2021/03/29 03:35:17;;;;;;;4.10;2.38;;;13.50;46.40;;;;;;2113942;28;20032;-54
2021/03/29 03:36:40;;;;;;;6.90;2.83;;;13.50;46.50;;;;;;2113258;28;20187;-57
2021/03/29 03:38:21;;;;;;;3.75;2.38;;;13.50;46.50;;;;;;2114456;28;20052;-58
2021/03/29 03:39:44;;;;;;;5.05;2.20;;;13.40;46.50;;;;;;2102271;28;20028;-56
2021/03/29 03:41:14;;;;;;;5.13;2.17;;;13.50;46.50;;;;;;2110853;28;20027;-58
2021/03/29 03:42:35;;;;;;;4.82;2.75;;;13.40;46.60;;;;;;2109442;28;20132;-58
2021/03/29 03:43:58;;;;;;;6.78;3.10;;;13.40;46.50;;;;;;2112561;28;20031;-58
2021/03/29 03:45:22;;;;;;;5.93;2.63;;;13.40;46.50;;;;;;2114288;28;20031;-58
2021/03/29 03:46:45;;;;;;;5.68;2.53;;;13.40;46.70;;;;;;2113447;28;20035;-58
2021/03/29 03:48:07;;;;;;;4.85;2.60;;;13.40;46.80;;;;;;2113009;28;20500;-58
2021/03/29 03:49:29;;;;;;;4.35;2.08;;;13.40;46.70;;;;;;2110088;28;20043;-58
2021/03/29 03:50:51;;;;;;;9.13;2.83;;;13.40;46.80;;;;;;2114130;28;20070;-58
2021/03/29 03:52:14;;;;;;;5.32;2.75;;;13.40;46.90;;;;;;2113110;28;20038;-58
2021/03/29 03:53:36;;;;;;;4.60;2.42;;;13.40;46.90;;;;;;2112232;28;20059;-58
2021/03/29 03:54:57;;;;;;;5.45;2.15;;;13.40;47.00;;;;;;2113374;28;20027;-57
2021/03/29 03:56:18;;;;;;;4.90;2.38;;;13.30;46.90;;;;;;2113164;28;20027;-58
2021/03/29 03:57:41;;;;;;;4.03;2.50;;;13.40;47.00;;;;;;2109724;28;20042;-58
2021/03/29 03:59:07;;;;;;;4.40;2.10;;;13.30;47.10;;;;;;2113046;28;20494;-57
2021/03/29 04:00:29;;;;;;;4.35;2.40;;;13.30;47.10;;;;;;2108549;28;20035;-56
2021/03/29 04:02:02;;;;;;;5.70;2.55;;;13.30;47.20;;;;;;2110032;28;20138;-58
2021/03/29 04:03:25;;;;;;;4.80;2.45;;;13.30;47.30;;;;;;2110739;28;20516;-57
2021/03/29 04:04:46;;;;;;;4.18;1.88;;;13.30;47.10;;;;;;2112373;28;20285;-57
2021/03/29 04:06:07;;;;;;;3.97;2.35;;;13.30;47.10;;;;;;2113225;28;20020;-58
2021/03/29 04:07:29;;;;;;;4.53;2.65;;;13.30;47.20;;;;;;2111285;28;20023;-57
2021/03/29 04:08:50;;;;;;;5.53;2.40;;;13.30;47.30;;;;;;2112592;28;20085;-57
2021/03/29 04:12:10;;;;;;;4.65;2.38;;;13.30;47.40;;;;;;2071629;28;20118;-58
2021/03/29 04:13:32;;;;;;;4.18;2.05;;;13.30;47.30;;;;;;2070983;28;20030;-58
2021/03/29 04:14:53;;;;;;;7.57;2.42;;;13.30;47.40;;;;;;2115710;27;20032;-58
2021/03/29 04:16:14;;;;;;;3.95;1.92;;;13.30;47.50;;;;;;2112656;28;20175;-57
2021/03/29 04:17:34;;;;;;;4.75;2.50;;;13.30;47.40;;;;;;2110926;28;20050;-55
2021/03/29 04:18:56;;;;;;;6.63;2.15;;;13.20;47.40;;;;;;2112382;28;20042;-58
2021/03/29 04:20:17;;;;;;;5.40;2.13;;;13.30;47.40;;;;;;2113509;28;20022;-56
2021/03/29 04:21:38;;;;;;;4.40;2.05;;;13.20;47.50;;;;;;2113391;28;20035;-58
2021/03/29 04:22:59;;;;;;;6.25;2.33;;;13.30;47.50;;;;;;2112102;28;20027;-58
2021/03/29 04:24:20;;;;;;;5.90;2.50;;;13.30;47.50;;;;;;2106377;28;20111;-57
2021/03/29 04:25:41;;;;;;;7.93;2.78;;;13.20;47.60;;;;;;2110247;28;20079;-58
2021/03/29 04:27:02;;;;;;;4.40;2.40;;;13.30;47.60;;;;;;2112583;28;20039;-57
2021/03/29 04:28:23;;;;;;;6.25;2.67;;;13.20;47.60;;;;;;2107701;28;20024;-58
2021/03/29 04:29:44;;;;;;;5.90;2.75;;;13.20;47.60;;;;;;2111196;28;20036;-56
2021/03/29 04:31:05;;;;;;;3.58;2.10;;;13.20;47.60;;;;;;2111216;28;20035;-58
2021/03/29 04:32:26;;;;;;;3.08;2.05;;;13.20;47.70;;;;;;2107468;28;20512;-58
2021/03/29 04:33:47;;;;;;;5.65;2.72;;;13.20;47.70;;;;;;2111161;28;20070;-57
2021/03/29 04:35:09;;;;;;;5.53;2.72;;;13.20;47.70;;;;;;2111529;28;20039;-58
2021/03/29 04:36:30;;;;;;;5.20;2.30;;;13.20;47.70;;;;;;2108913;27;20151;-57
2021/03/29 04:37:52;;;;;;;5.78;2.40;;;13.20;47.70;;;;;;2113032;28;20032;-57
2021/03/29 04:39:13;;;;;;;6.40;2.40;;;13.20;47.80;;;;;;2112485;28;20035;-58
2021/03/29 04:40:34;;;;;;;6.85;2.88;;;13.20;47.80;;;;;;2111319;28;20039;-56
2021/03/29 04:41:55;;;;;;;5.38;2.28;;;13.20;47.90;;;;;;2112179;28;20028;-58
2021/03/29 04:43:16;;;;;;;9.05;2.60;;;13.20;47.80;;;;;;2110301;28;20315;-57
2021/03/29 04:44:37;;;;;;;4.80;2.15;;;13.20;47.80;;;;;;2112341;28;20059;-58
2021/03/29 04:45:57;;;;;;;4.85;2.35;;;13.20;47.80;;;;;;2111835;28;20375;-56
2021/03/29 04:47:18;;;;;;;6.28;2.55;;;13.20;47.80;;;;;;2111753;28;20408;-56
2021/03/29 04:48:39;;;;;;;4.28;2.42;;;13.20;47.80;;;;;;2108046;28;20090;-57
2021/03/29 04:50:00;;;;;;;6.88;2.35;;;13.20;47.90;;;;;;2109474;28;20039;-58
2021/03/29 04:51:21;;;;;;;8.88;2.40;;;13.20;47.90;;;;;;2111828;28;20023;-56
2021/03/29 04:52:43;;;;;;;9.95;2.38;;;13.20;48.00;;;;;;2110282;27;20064;-58
2021/03/29 04:54:04;;;;;;;5.63;2.10;;;13.20;47.90;;;;;;2110927;28;20034;-57
2021/03/29 04:55:25;;;;;;;4.43;1.95;;;13.20;48.00;;;;;;2110104;28;20032;-57
2021/03/29 04:56:46;;;;;;;5.43;2.45;;;13.20;47.90;;;;;;2112617;28;20042;-57
2021/03/29 04:58:07;;;;;;;7.05;2.45;;;13.20;48.10;;;;;;2110550;28;20027;-58
2021/03/29 04:59:28;;;;;;;7.13;2.53;;;13.20;48.00;;;;;;2109336;28;20022;-58
2021/03/29 05:00:49;;;;;;;4.57;2.20;;;13.20;48.00;;;;;;2110904;28;20103;-58
2021/03/29 05:02:10;;;;;;;5.43;2.03;;;13.20;48.00;;;;;;2110624;28;20032;-58
2021/03/29 05:03:31;;;;;;;9.30;2.40;;;13.10;47.90;;;;;;2101395;28;20028;-58
2021/03/29 05:04:52;;;;;;;6.20;2.22;;;13.20;48.10;;;;;;2109321;28;20032;-57
2021/03/29 05:06:13;;;;;;;7.22;2.53;;;13.20;48.10;;;;;;2110992;28;20042;-58
2021/03/29 05:07:34;;;;;;;6.68;2.15;;;13.10;48.10;;;;;;2108565;28;20110;-58
2021/03/29 05:08:55;;;;;;;5.57;2.42;;;13.10;48.10;;;;;;2110970;28;20028;-58
2021/03/29 05:10:16;;;;;;;5.25;2.67;;;13.20;48.10;;;;;;2111392;28;20038;-58
2021/03/29 05:11:49;;;;;;;5.43;2.72;;;13.10;48.10;;;;;;2111014;28;20016;-58
2021/03/29 05:13:10;;;;;;;7.03;2.38;;;13.10;48.10;;;;;;2111830;28;20123;-56
2021/03/29 05:14:31;;;;;;;6.50;2.85;;;13.10;48.20;;;;;;2110806;28;20124;-58
2021/03/29 05:15:51;;;;;;;5.75;2.42;;;13.10;48.20;;;;;;2111857;28;20031;-57
2021/03/29 05:17:12;;;;;;;8.75;2.67;;;13.10;48.20;;;;;;2110746;28;20036;-57
2021/03/29 05:18:33;;;;;;;9.18;2.70;;;13.10;48.20;;;;;;2108749;28;20024;-58
2021/03/29 05:19:54;;;;;;;8.25;2.70;;;13.10;48.30;;;;;;2111066;28;20078;-56
2021/03/29 05:21:15;;;;;;;6.13;2.50;;;13.10;48.30;;;;;;2111321;28;20402;-58
2021/03/29 05:22:36;;;;;;;6.75;2.20;;;13.10;48.30;;;;;;2107919;28;20027;-56
2021/03/29 05:23:57;;;;;;;6.88;2.95;;;13.10;48.40;;;;;;2113551;27;20027;-57
2021/03/29 05:25:18;;;;;;;8.82;3.08;;;13.10;48.40;;;;;;2110837;28;20023;-57
2021/03/29 05:26:39;;;;;;;8.10;2.65;;;13.10;48.40;;;;;;2109344;28;20089;-56
2021/03/29 05:28:00;;;;;;;7.72;3.00;;;13.10;48.50;;;;;;2113275;28;20023;-58
2021/03/29 05:29:27;;;;;;;6.00;3.22;;;13.10;48.50;;;;;;2112464;28;20027;-56
2021/03/29 05:30:48;;;;;;;6.88;2.50;;;13.10;48.50;;;;;;2110943;28;20036;-57
2021/03/29 05:32:14;;;;;;;6.50;2.42;;;13.10;48.50;;;;;;2110704;28;20024;-56
2021/03/29 05:33:35;;;;;;;9.02;3.20;;;13.10;48.60;;;;;;2111432;28;20028;-57
2021/03/29 05:34:57;;;;;;;9.60;3.13;;;13.10;49.10;;;;;;2111998;28;20141;-57
2021/03/29 05:36:18;;;;;;;6.90;2.78;;;13.10;48.70;;;;;;2112114;28;20030;-57
2021/03/29 05:37:39;;;;;;;6.45;2.75;;;13.10;48.60;;;;;;2108515;28;20074;-57
2021/03/29 05:39:00;;;;;;;7.75;2.60;;;13.10;48.70;;;;;;2114948;27;20069;-57
2021/03/29 05:40:21;;;;;;;4.85;2.75;;;13.10;48.70;;;;;;2111441;28;20031;-57
2021/03/29 05:41:43;;;;;;;4.75;2.60;;;13.10;48.70;;;;;;2112529;28;20028;-58
2021/03/29 05:43:05;;;;;;;5.35;2.40;;;13.10;48.70;;;;;;2111730;28;20027;-57
2021/03/29 05:44:26;;;;;;;4.63;2.28;;;13.00;48.60;;;;;;2110635;28;20039;-56
2021/03/29 05:45:50;;;;;;;7.22;3.25;;;13.10;48.70;;;;;;2109176;28;20034;-57
2021/03/29 05:47:13;;;;;;;5.53;2.72;;;13.00;48.70;;;;;;2111011;28;20370;-57
2021/03/29 05:48:37;;;;;;;6.40;2.72;;;13.10;48.70;;;;;;2108117;28;20427;-57
2021/03/29 05:50:01;;;;;;;4.38;2.55;;;13.00;48.80;;;;;;2103058;28;20032;-57
2021/03/29 05:51:21;;;;;;;5.00;2.38;;;13.10;48.80;;;;;;2102949;28;20076;-57
2021/03/29 05:52:43;;;;;;;4.72;2.30;;;13.10;48.80;;;;;;2109911;28;20303;-58
2021/03/29 05:54:06;;;;;;;8.10;3.15;;;13.10;48.90;;;;;;2111127;28;20507;-58
2021/03/29 05:55:33;;;;;;;5.40;2.63;;;13.10;48.90;;;;;;2107445;28;20033;-57
2021/03/29 05:56:55;;;;;;;3.92;2.28;;;13.00;48.80;;;;;;2109930;28;20497;-56
2021/03/29 05:58:32;;;;;;;7.65;2.80;;;13.10;48.90;;;;;;2111318;28;20107;-57
2021/03/29 05:59:53;;;;;;;4.20;2.28;;;13.10;48.90;;;;;;2110968;28;20343;-56
2021/03/29 06:01:14;;;;;;;5.20;2.20;;;13.10;48.90;;;;;;2111183;28;20118;-58
2021/03/29 06:02:35;;;;;;;5.10;2.35;;;13.10;48.90;;;;;;2107132;28;20040;-57
2021/03/29 06:03:56;;;;;;;4.43;2.45;;;13.10;48.90;;;;;;2108636;28;20031;-57
2021/03/29 06:05:32;;;;;;;6.10;2.70;;;13.10;49.00;;;;;;2108836;28;20505;-56
2021/03/29 06:06:53;;;;;;;5.65;2.25;;;13.10;49.30;;;;;;2110782;28;20366;-57
2021/03/29 06:08:15;;;;;;;4.00;2.40;;;13.10;49.00;;;;;;2110498;28;20095;-57
2021/03/29 06:09:36;;;;;;;5.97;2.15;;;13.10;49.10;;;;;;2107917;28;20489;-57
2021/03/29 06:10:59;;;;;;;5.70;2.03;;;13.10;49.10;;;;;;2109743;28;20482;-58
2021/03/29 06:12:22;;;;;;;5.50;2.38;;;13.10;49.20;;;;;;2105180;28;20039;-59
2021/03/29 06:13:43;;;;;;;4.57;2.00;;;13.10;49.20;;;;;;2110815;28;20038;-57
2021/03/29 06:15:05;;;;;;;5.28;2.10;;;13.10;49.20;;;;;;2110115;28;20165;-58
2021/03/29 06:16:26;;;;;;;4.72;2.38;;;13.10;49.30;;;;;;2105796;28;20470;-57
2021/03/29 06:17:46;;;;;;;3.47;1.88;;;13.10;49.30;;;;;;2109854;28;20016;-56
2021/03/29 06:19:07;;;;;;;5.95;2.08;;;13.10;49.30;;;;;;2108145;28;20028;-56
2021/03/29 06:20:28;;;;;;;5.63;2.13;;;13.10;49.40;;;;;;2108556;28;20032;-58
2021/03/29 06:22:06;;;;;;;7.88;2.50;;;13.20;49.50;;;;;;2108692;28;20038;-57
2021/03/29 06:23:28;;;;;;;7.00;1.90;;;13.20;49.60;;;;;;2107192;28;20166;-56
2021/03/29 06:24:56;;;;;;;3.33;2.10;;;13.20;49.40;;;;;;2110633;28;20089;-57
2021/03/29 06:26:31;;;;;;;5.30;2.50;;;13.20;49.50;;;;;;2110426;28;20039;-57
2021/03/29 06:27:56;;;;;;;5.75;2.15;;;13.20;49.60;;;;;;2108686;28;20091;-58
2021/03/29 06:29:18;;;;;;;8.05;2.10;;;13.30;49.50;;;;;;2109355;28;20024;-57
2021/03/29 06:30:39;;;;;;;4.60;2.00;;;13.30;49.50;;;;;;2108975;28;20023;-57
2021/03/29 06:32:00;;;;;;;5.32;1.88;;;13.30;49.50;;;;;;2111424;28;20035;-58
2021/03/29 06:33:21;;;;;;;8.93;2.63;;;13.30;49.50;;;;;;2110851;28;20082;-57
2021/03/29 06:34:42;;;;;;;7.13;2.42;;;13.40;50.10;;;;;;2108037;28;20039;-56
2021/03/29 06:36:03;;;;;;;5.57;2.22;;;13.40;49.60;;;;;;2110148;28;20665;-56
2021/03/29 06:37:24;;;;;;;6.63;2.40;;;13.40;49.60;;;;;;2106577;28;21153;-57
2021/03/29 06:38:45;;;;;;;4.68;2.08;;;13.40;49.60;;;;;;2110697;28;20111;-56
2021/03/29 06:40:10;;;;;;;3.97;2.03;;;13.40;49.60;;;;;;2109503;28;20084;-56
2021/03/29 06:41:31;;;;;;;5.72;2.47;;;13.40;49.70;;;;;;2108553;28;20390;-58
2021/03/29 06:42:52;;;;;;;3.63;2.05;;;13.50;49.70;;;;;;2110198;28;20027;-55
2021/03/29 06:44:26;;;;;;;4.90;2.13;;;13.50;49.70;;;;;;2107882;28;20024;-58
2021/03/29 06:45:49;;;;;;;7.45;2.20;;;13.50;49.80;;;;;;2107961;28;20032;-58
2021/03/29 06:47:14;;;;;;;4.07;2.15;;;13.50;49.60;;;;;;2108902;28;20023;-57
2021/03/29 06:48:37;;;;;;;5.40;2.08;;;13.60;49.70;;;;;;2107479;28;20112;-57
2021/03/29 06:49:58;;;;;;;4.95;2.30;;;13.60;49.60;;;;;;2111559;28;20080;-58
2021/03/29 06:51:34;;;;;;;7.10;2.67;;;13.60;49.70;;;;;;2111460;28;20445;-58
2021/03/29 06:52:55;;;;;;;3.80;2.05;;;13.70;49.80;;;;;;2111130;28;20126;-58
2021/03/29 06:54:18;;;;;;;4.38;2.03;;;13.70;49.70;;;;;;2112128;28;20063;-57
2021/03/29 06:55:39;;;;;;;8.73;2.63;;;13.70;49.70;;;;;;2107467;28;20905;-57
2021/03/29 06:57:00;;;;;;;3.72;2.10;;;13.70;49.60;;;;;;2110438;28;20035;-57
2021/03/29 06:58:25;;;;;;;4.97;2.03;;;13.70;49.70;;;;;;2112082;28;20023;-58
2021/03/29 06:59:46;;;;;;;5.22;2.20;;;13.80;49.70;;;;;;2110045;28;20028;-57
2021/03/29 07:01:15;;;;;;;5.35;2.30;;;13.80;49.80;;;;;;2111123;28;21044;-58
2021/03/29 07:02:45;;;;;;;5.97;2.42;;;13.80;49.80;;;;;;2109229;28;20102;-58
2021/03/29 07:04:06;;;;;;;;;;;13.90;49.70;;;;;;2111678;28;20506;-57
2021/03/29 07:05:28;;;;;;;5.70;1.90;;;13.90;49.70;;;;;;2103220;28;19911;-58
2021/03/29 07:06:49;;;;;;;10.55;2.55;;;14.00;49.60;;;;;;2110853;28;20019;-58
2021/03/29 07:08:11;;;;;;;4.70;2.00;;;14.00;49.60;;;;;;2111450;28;20039;-57
2021/03/29 07:09:34;;;;;;;2.97;1.95;;;14.00;49.60;;;;;;2106924;28;20032;-58
2021/03/29 07:10:55;;;;;;;7.65;2.38;;;14.10;49.60;;;;;;2110720;28;20033;-58
2021/03/29 07:12:16;;;;;;;8.50;2.42;;;14.10;49.60;;;;;;2111731;28;20071;-58
2021/03/29 07:13:39;;;;;;;4.03;2.15;;;14.10;49.60;;;;;;2111519;28;20071;-57